createdAt,value
2024-01-07T00:02:07.525Z,36.46
2024-01-07T00:04:41.270Z,36.37
2024-01-07T00:07:09.898Z,36.64
2024-01-07T00:09:45.831Z,36.53
2024-01-07T00:12:16.673Z,36.64
2024-01-07T00:14:50.079Z,36.48
2024-01-07T00:17:31.710Z,36.56
2024-01-07T00:20:16.793Z,36.72
2024-01-07T00:22:52.340Z,36.75
2024-01-07T00:25:34.029Z,37.06
2024-01-07T00:28:03.005Z,36.92
2024-01-07T00:30:39.326Z,36.73
2024-01-07T00:33:13.285Z,36.84
2024-01-07T00:35:51.410Z,36.78
2024-01-07T00:38:33.696Z,36.87
2024-01-07T00:41:12.929Z,36.84
2024-01-07T00:43:45.695Z,37.08
2024-01-07T00:46:24.049Z,36.87
2024-01-07T00:49:05.829Z,37.18
2024-01-07T00:51:43.199Z,36.98
2024-01-07T00:54:19.182Z,36.79
2024-01-07T00:56:54.951Z,36.72
2024-01-07T00:59:32.435Z,36.91
2024-01-07T01:02:05.448Z,36.90
2024-01-07T01:04:40.354Z,37.33
2024-01-07T01:07:16.803Z,37.11
2024-01-07T01:09:50.792Z,37.32
2024-01-07T01:12:27.482Z,37.19
2024-01-07T01:15:11.629Z,37.01
2024-01-07T01:17:39.201Z,37.17
2024-01-07T01:20:11.067Z,36.97
2024-01-07T01:22:47.437Z,37.30
2024-01-07T01:25:23.551Z,37.37
2024-01-07T01:27:59.851Z,37.73
2024-01-07T01:30:33.310Z,37.63
2024-01-07T01:33:15.477Z,37.28
2024-01-07T01:35:48.582Z,36.99
2024-01-07T01:38:24.423Z,36.97
2024-01-07T01:40:58.063Z,36.79
2024-01-07T01:43:37.178Z,36.88
2024-01-07T01:46:08.394Z,37.00
2024-01-07T01:48:38.488Z,37.54
2024-01-07T01:51:16.779Z,37.35
2024-01-07T01:53:52.213Z,37.62
2024-01-07T01:56:32.290Z,37.80
2024-01-07T01:59:12.455Z,37.37
2024-01-07T02:01:51.133Z,37.43
2024-01-07T02:04:32.668Z,37.26
2024-01-07T02:07:06.093Z,37.22
2024-01-07T02:09:43.886Z,36.88
2024-01-07T02:12:23.946Z,37.02
2024-01-07T02:15:05.295Z,37.02
2024-01-07T02:17:38.222Z,37.46
2024-01-07T02:20:15.527Z,36.84
2024-01-07T02:22:53.859Z,36.50
2024-01-07T02:25:24.403Z,36.22
2024-01-07T02:27:55.508Z,36.59
2024-01-07T02:30:37.238Z,36.45
2024-01-07T02:33:16.615Z,36.58
2024-01-07T02:35:44.806Z,36.79
2024-01-07T02:38:20.566Z,36.67
2024-01-07T02:41:10.841Z,36.65
2024-01-07T02:43:43.921Z,36.67
2024-01-07T02:46:18.154Z,36.23
2024-01-07T02:48:58.180Z,35.97
2024-01-07T02:51:36.257Z,36.36
2024-01-07T02:54:12.612Z,36.10
2024-01-07T02:56:57.520Z,36.17
2024-01-07T02:59:30.687Z,36.35
2024-01-07T03:02:00.754Z,36.68
2024-01-07T03:04:37.496Z,36.32
2024-01-07T03:07:14.349Z,36.14
2024-01-07T03:09:49.969Z,36.10
2024-01-07T03:12:19.919Z,35.89
2024-01-07T03:14:59.914Z,35.87
2024-01-07T03:17:35.720Z,35.93
2024-01-07T03:20:09.448Z,35.83
2024-01-07T03:22:48.345Z,36.35
2024-01-07T03:25:27.809Z,36.21
2024-01-07T03:28:10.862Z,36.36
2024-01-07T03:30:49.678Z,36.20
2024-01-07T03:33:25.408Z,35.95
2024-01-07T03:35:55.987Z,35.85
2024-01-07T03:38:30.513Z,36.11
2024-01-07T03:41:02.533Z,36.24
2024-01-07T03:43:35.941Z,36.47
2024-01-07T03:46:04.890Z,36.67
2024-01-07T03:48:38.530Z,36.92
2024-01-07T03:51:12.113Z,36.81
2024-01-07T03:53:43.531Z,36.83
2024-01-07T03:56:19.285Z,36.68
2024-01-07T03:58:59.500Z,36.65
2024-01-07T04:01:32.712Z,36.88
2024-01-07T04:04:01.637Z,37.08
2024-01-07T04:06:37.622Z,36.85
2024-01-07T04:09:11.381Z,37.11
2024-01-07T04:11:45.130Z,37.25
2024-01-07T04:14:23.708Z,37.54
2024-01-07T04:16:54.315Z,36.93
2024-01-07T04:19:30.412Z,36.78
2024-01-07T04:22:06.418Z,36.72
2024-01-07T04:24:42.904Z,37.17
2024-01-07T04:27:15.819Z,36.92
2024-01-07T04:29:49.077Z,36.68
2024-01-07T04:32:25.454Z,37.29
2024-01-07T04:35:01.362Z,37.54
2024-01-07T04:37:36.263Z,37.41
2024-01-07T04:40:12.503Z,37.01
2024-01-07T04:42:48.964Z,36.94
2024-01-07T04:45:30.419Z,36.84
2024-01-07T04:48:06.103Z,36.78
2024-01-07T04:50:38.593Z,36.88
2024-01-07T04:53:09.761Z,37.04
2024-01-07T04:55:49.064Z,37.15
2024-01-07T04:58:24.764Z,37.30
2024-01-07T05:00:57.966Z,37.46
2024-01-07T05:03:37.055Z,37.29
2024-01-07T05:06:11.129Z,37.36
2024-01-07T05:08:50.819Z,37.24
2024-01-07T05:11:24.195Z,37.40
2024-01-07T05:14:01.035Z,37.39
2024-01-07T05:16:36.667Z,37.57
2024-01-07T05:19:11.952Z,37.33
2024-01-07T05:21:42.324Z,37.47
2024-01-07T05:24:17.805Z,37.47
2024-01-07T05:26:59.602Z,37.26
2024-01-07T05:29:34.905Z,37.48
2024-01-07T05:32:08.410Z,37.48
2024-01-07T05:34:44.169Z,37.41
2024-01-07T05:37:21.622Z,37.28
2024-01-07T05:39:57.493Z,37.45
2024-01-07T05:42:31.636Z,37.08
2024-01-07T05:45:09.987Z,37.67
2024-01-07T05:47:42.590Z,37.72
2024-01-07T05:50:16.706Z,37.68
2024-01-07T05:52:59.884Z,37.60
2024-01-07T05:55:36.063Z,37.43
2024-01-07T05:58:11.253Z,37.38
2024-01-07T06:00:57.272Z,36.97
2024-01-07T06:03:34.915Z,37.38
2024-01-07T06:06:20.248Z,37.06
2024-01-07T06:08:58.784Z,37.35
2024-01-07T06:11:37.563Z,37.40
2024-01-07T06:14:11.139Z,37.65
2024-01-07T06:16:44.420Z,37.24
2024-01-07T06:19:25.498Z,36.99
2024-01-07T06:22:02.666Z,36.93
2024-01-07T06:24:38.567Z,37.44
2024-01-07T06:27:11.562Z,36.99
2024-01-07T06:29:47.556Z,37.55
2024-01-07T06:32:15.452Z,37.08
2024-01-07T06:34:53.773Z,37.18
2024-01-07T06:37:30.153Z,37.77
2024-01-07T06:40:06.201Z,37.27
2024-01-07T06:42:39.246Z,37.04
2024-01-07T06:45:21.634Z,36.97
2024-01-07T06:47:57.919Z,36.93
2024-01-07T06:50:36.260Z,37.40
2024-01-07T06:53:11.869Z,36.97
2024-01-07T06:55:51.633Z,37.32
2024-01-07T06:58:33.547Z,37.38
2024-01-07T07:01:11.431Z,37.58
2024-01-07T07:03:47.155Z,37.28
2024-01-07T07:06:20.103Z,36.70
2024-01-07T07:08:56.326Z,36.99
2024-01-07T07:11:30.730Z,37.07
2024-01-07T07:14:12.733Z,37.12
2024-01-07T07:16:43.476Z,37.18
2024-01-07T07:19:19.098Z,37.14
2024-01-07T07:21:49.817Z,37.51
2024-01-07T07:24:25.865Z,37.64
2024-01-07T07:27:05.001Z,37.39
2024-01-07T07:29:47.102Z,36.74
2024-01-07T07:32:22.983Z,37.04
2024-01-07T07:35:04.502Z,37.19
2024-01-07T07:37:43.584Z,37.18
2024-01-07T07:40:20.498Z,37.10
2024-01-07T07:42:56.703Z,37.00
2024-01-07T07:45:35.841Z,37.71
2024-01-07T07:48:08.982Z,37.47
2024-01-07T07:50:37.734Z,37.32
2024-01-07T07:53:10.681Z,36.80
2024-01-07T07:55:44.738Z,36.94
2024-01-07T07:58:24.622Z,37.05
2024-01-07T08:01:01.218Z,37.36
2024-01-07T08:03:34.821Z,37.25
2024-01-07T08:06:07.624Z,37.37
2024-01-07T08:08:41.955Z,37.33
2024-01-07T08:11:17.433Z,37.13
2024-01-07T08:13:56.444Z,37.48
2024-01-07T08:16:27.217Z,37.33
2024-01-07T08:19:08.796Z,37.29
2024-01-07T08:21:46.585Z,37.19
2024-01-07T08:24:26.037Z,37.22
2024-01-07T08:27:05.718Z,37.31
2024-01-07T08:29:44.189Z,37.16
2024-01-07T08:32:20.817Z,37.36
2024-01-07T08:35:00.403Z,37.10
2024-01-07T08:37:35.939Z,37.26
2024-01-07T08:40:15.402Z,37.36
2024-01-07T08:42:48.404Z,37.37
2024-01-07T08:45:25.084Z,37.64
2024-01-07T08:47:55.856Z,37.11
2024-01-07T08:50:34.549Z,37.05
2024-01-07T08:53:06.125Z,36.85
2024-01-07T08:55:37.039Z,37.15
2024-01-07T08:58:10.868Z,37.33
2024-01-07T09:00:45.360Z,37.37
2024-01-07T09:03:21.274Z,37.57
2024-01-07T09:05:57.338Z,37.37
2024-01-07T09:08:33.620Z,37.22
2024-01-07T09:11:15.497Z,36.91
2024-01-07T09:13:52.469Z,36.60
2024-01-07T09:16:36.105Z,36.76
2024-01-07T09:19:04.338Z,36.82
2024-01-07T09:21:40.612Z,36.57
2024-01-07T09:24:14.492Z,36.54
2024-01-07T09:26:48.040Z,36.44
2024-01-07T09:29:23.950Z,36.49
2024-01-07T09:32:00.748Z,36.45
2024-01-07T09:34:41.072Z,36.43
2024-01-07T09:37:21.150Z,36.13
2024-01-07T09:39:54.402Z,36.25
2024-01-07T09:42:27.633Z,36.39
2024-01-07T09:44:57.359Z,36.28
2024-01-07T09:47:28.906Z,36.14
2024-01-07T09:50:11.291Z,36.32
2024-01-07T09:52:47.994Z,36.30
2024-01-07T09:55:31.283Z,36.16
2024-01-07T09:58:07.467Z,36.26
2024-01-07T10:00:49.000Z,36.23
2024-01-07T10:03:25.865Z,36.10
2024-01-07T10:06:06.879Z,36.48
2024-01-07T10:08:40.527Z,36.50
2024-01-07T10:11:13.922Z,36.95
2024-01-07T10:13:52.706Z,37.12
2024-01-07T10:16:34.131Z,36.89
2024-01-07T10:19:12.947Z,36.82
2024-01-07T10:21:48.305Z,36.83
2024-01-07T10:24:27.319Z,37.12
2024-01-07T10:27:01.113Z,36.85
2024-01-07T10:29:33.910Z,36.68
2024-01-07T10:32:07.607Z,37.03
2024-01-07T10:34:41.649Z,37.03
2024-01-07T10:37:14.250Z,37.01
2024-01-07T10:39:50.266Z,37.10
2024-01-07T10:42:35.655Z,37.04
2024-01-07T10:45:16.143Z,37.30
2024-01-07T10:47:54.661Z,37.54
2024-01-07T10:50:28.085Z,37.08
2024-01-07T10:53:08.872Z,36.81
2024-01-07T10:55:57.656Z,37.03
2024-01-07T10:58:36.635Z,37.12
2024-01-07T11:01:16.454Z,37.08
2024-01-07T11:03:56.668Z,37.39
2024-01-07T11:06:52.069Z,37.26
2024-01-07T11:09:34.975Z,37.40
2024-01-07T11:12:08.827Z,37.38
2024-01-07T11:14:54.090Z,36.91
2024-01-07T11:17:37.135Z,36.95
2024-01-07T11:20:30.084Z,37.25
2024-01-07T11:23:30.526Z,37.10
2024-01-07T11:26:04.748Z,37.33
2024-01-07T11:28:57.914Z,37.32
2024-01-07T11:31:40.925Z,36.95
2024-01-07T11:34:42.945Z,37.10
2024-01-07T11:37:18.295Z,36.94
2024-01-07T11:39:52.877Z,36.99
2024-01-07T11:42:33.724Z,36.97
2024-01-07T11:45:12.152Z,37.11
2024-01-07T11:47:40.287Z,37.40
2024-01-07T11:50:16.201Z,37.36
2024-01-07T11:52:50.322Z,37.37
2024-01-07T11:55:26.706Z,37.03
2024-01-07T11:57:57.880Z,37.27
2024-01-07T12:00:34.572Z,37.00
2024-01-07T12:03:14.107Z,36.98
2024-01-07T12:05:49.084Z,37.21
2024-01-07T12:08:23.114Z,37.34
2024-01-07T12:11:03.165Z,37.45
2024-01-07T12:13:38.335Z,37.69
2024-01-07T12:16:14.838Z,36.86
2024-01-07T12:18:46.260Z,37.19
2024-01-07T12:21:26.188Z,37.07
2024-01-07T12:24:01.094Z,37.21
2024-01-07T12:26:38.834Z,37.09
2024-01-07T12:29:13.732Z,37.02
2024-01-07T12:31:45.945Z,37.33
2024-01-07T12:34:21.265Z,37.37
2024-01-07T12:36:55.966Z,37.18
2024-01-07T12:39:28.317Z,37.24
2024-01-07T12:42:09.265Z,36.92
2024-01-07T12:44:52.570Z,37.05
2024-01-07T12:47:26.625Z,37.00
2024-01-07T12:49:59.914Z,37.22
2024-01-07T12:52:36.945Z,37.18
2024-01-07T12:55:06.163Z,37.75
2024-01-07T12:57:43.995Z,37.25
2024-01-07T13:00:17.412Z,37.40
2024-01-07T13:02:53.315Z,37.24
2024-01-07T13:05:27.415Z,37.14
2024-01-07T13:08:03.484Z,37.51
2024-01-07T13:10:39.670Z,37.29
2024-01-07T13:13:18.980Z,37.24
2024-01-07T13:15:46.874Z,37.46
2024-01-07T13:18:18.932Z,37.91
2024-01-07T13:20:54.825Z,37.61
2024-01-07T13:23:34.196Z,37.18
2024-01-07T13:26:07.705Z,37.30
2024-01-07T13:28:43.658Z,37.42
2024-01-07T13:31:25.466Z,37.13
2024-01-07T13:33:56.179Z,37.69
2024-01-07T13:36:32.043Z,37.71
2024-01-07T13:39:03.095Z,37.52
2024-01-07T13:41:39.963Z,37.66
2024-01-07T13:44:20.238Z,37.49
2024-01-07T13:46:53.487Z,37.49
2024-01-07T13:49:22.388Z,37.41
2024-01-07T13:51:58.362Z,37.25
2024-01-07T13:54:35.875Z,37.32
2024-01-07T13:57:17.265Z,37.59
2024-01-07T13:59:53.607Z,37.25
2024-01-07T14:02:30.244Z,37.37
2024-01-07T14:05:04.529Z,37.37
2024-01-07T14:07:38.426Z,37.34
2024-01-07T14:10:12.423Z,37.30
2024-01-07T14:12:49.136Z,37.26
2024-01-07T14:15:27.574Z,37.57
2024-01-07T14:18:06.289Z,37.34
2024-01-07T14:20:34.058Z,37.64
2024-01-07T14:23:05.895Z,37.63
2024-01-07T14:25:42.987Z,37.55
2024-01-07T14:28:20.404Z,37.52
2024-01-07T14:30:59.523Z,37.12
2024-01-07T14:33:31.485Z,37.44
2024-01-07T14:36:05.740Z,37.32
2024-01-07T14:38:36.571Z,37.53
2024-01-07T14:41:08.499Z,37.39
2024-01-07T14:43:43.373Z,37.62
2024-01-07T14:46:21.980Z,37.56
2024-01-07T14:49:01.229Z,37.56
2024-01-07T14:51:45.336Z,37.17
2024-01-07T14:54:23.979Z,36.93
2024-01-07T14:56:59.866Z,36.96
2024-01-07T14:59:31.758Z,37.31
2024-01-07T15:02:05.782Z,37.46
2024-01-07T15:04:42.487Z,37.17
2024-01-07T15:07:14.739Z,37.60
2024-01-07T15:09:45.661Z,37.45
2024-01-07T15:12:23.742Z,37.25
2024-01-07T15:15:02.515Z,37.07
2024-01-07T15:17:36.991Z,37.34
2024-01-07T15:20:11.932Z,36.96
2024-01-07T15:22:45.051Z,37.16
2024-01-07T15:25:22.401Z,37.10
2024-01-07T15:27:56.371Z,37.03
2024-01-07T15:30:44.096Z,37.36
2024-01-07T15:33:23.357Z,37.37
2024-01-07T15:36:00.074Z,37.61
2024-01-07T15:38:39.339Z,37.35
2024-01-07T15:41:18.141Z,37.32
2024-01-07T15:43:51.356Z,37.00
2024-01-07T15:46:25.328Z,36.99
2024-01-07T15:49:06.799Z,37.23
2024-01-07T15:51:50.317Z,37.55
2024-01-07T15:54:23.669Z,37.42
2024-01-07T15:56:59.962Z,37.38
2024-01-07T15:59:34.067Z,37.20
2024-01-07T16:02:04.682Z,37.40
2024-01-07T16:04:38.683Z,37.14
2024-01-07T16:07:14.031Z,37.43
2024-01-07T16:09:44.503Z,37.60
2024-01-07T16:12:19.674Z,37.48
2024-01-07T16:15:00.958Z,37.33
2024-01-07T16:17:37.256Z,37.24
2024-01-07T16:20:14.634Z,37.77
2024-01-07T16:22:47.981Z,37.50
2024-01-07T16:25:29.398Z,37.20
2024-01-07T16:28:07.449Z,37.16
2024-01-07T16:30:40.767Z,37.11
2024-01-07T16:33:14.031Z,37.39
2024-01-07T16:35:49.421Z,37.26
2024-01-07T16:38:24.748Z,37.41
2024-01-07T16:40:59.941Z,37.58
2024-01-07T16:43:38.750Z,37.34
2024-01-07T16:46:16.178Z,37.79
2024-01-07T16:51:23.269Z,37.24
2024-01-07T16:53:57.182Z,37.19
2024-01-07T16:56:30.730Z,37.08
2024-01-07T16:59:04.252Z,37.13
2024-01-07T17:01:40.670Z,37.32
2024-01-07T17:04:14.176Z,37.31
2024-01-07T17:06:53.114Z,37.46
2024-01-07T17:09:34.694Z,37.44
2024-01-07T17:12:11.688Z,37.64
2024-01-07T17:14:47.417Z,37.20
2024-01-07T17:17:21.290Z,36.86
2024-01-07T17:19:58.422Z,36.88
2024-01-07T17:22:31.747Z,37.10
2024-01-07T17:25:05.997Z,37.11
2024-01-07T17:27:41.818Z,37.16
2024-01-07T17:30:14.566Z,37.24
2024-01-07T17:32:49.387Z,37.21
2024-01-07T17:35:31.945Z,37.47
2024-01-07T17:38:08.954Z,37.37
2024-01-07T17:40:43.267Z,36.98
2024-01-07T17:43:16.869Z,36.93
2024-01-07T17:45:47.128Z,36.91
2024-01-07T17:48:29.655Z,36.80
2024-01-07T17:51:10.114Z,36.93
2024-01-07T17:53:44.173Z,37.22
2024-01-07T17:56:25.523Z,37.37
2024-01-07T17:58:59.658Z,37.26
2024-01-07T18:01:37.768Z,37.09
2024-01-07T18:04:15.080Z,37.01
2024-01-07T18:06:50.963Z,37.11
2024-01-07T18:09:31.131Z,36.87
2024-01-07T18:12:13.413Z,37.17
2024-01-07T18:14:51.740Z,37.14
2024-01-07T18:17:28.532Z,37.24
2024-01-07T18:20:08.584Z,37.47
2024-01-07T18:22:45.980Z,37.42
2024-01-07T18:25:25.360Z,37.43
2024-01-07T18:27:59.601Z,37.04
2024-01-07T18:30:40.235Z,36.91
2024-01-07T18:33:13.592Z,36.74
2024-01-07T18:35:52.304Z,36.99
2024-01-07T18:38:28.657Z,37.20
2024-01-07T18:41:04.612Z,37.13
2024-01-07T18:43:32.977Z,37.31
2024-01-07T18:46:17.180Z,37.26
2024-01-07T18:48:52.868Z,36.84
2024-01-07T18:51:29.804Z,36.81
2024-01-07T18:54:08.592Z,36.80
2024-01-07T18:56:44.949Z,36.84
2024-01-07T18:59:24.571Z,37.03
2024-01-07T19:02:01.094Z,37.17
2024-01-07T19:04:33.139Z,37.33
2024-01-07T19:07:06.714Z,37.10
2024-01-07T19:09:40.867Z,37.29
2024-01-07T19:12:18.917Z,37.00
2024-01-07T19:14:58.708Z,36.89
2024-01-07T19:17:33.395Z,37.38
2024-01-07T19:20:12.570Z,37.03
2024-01-07T19:22:48.957Z,37.13
2024-01-07T19:25:22.298Z,36.92
2024-01-07T19:27:56.060Z,37.26
2024-01-07T19:30:34.156Z,37.34
2024-01-07T19:33:05.349Z,37.48
2024-01-07T19:35:38.923Z,37.23
2024-01-07T19:38:12.111Z,37.08
2024-01-07T19:40:47.732Z,36.95
2024-01-07T19:43:23.605Z,36.96
2024-01-07T19:46:00.392Z,37.09
2024-01-07T19:48:39.545Z,37.30
2024-01-07T19:51:11.736Z,37.18
2024-01-07T19:53:45.167Z,37.05
2024-01-07T19:56:21.722Z,37.60
2024-01-07T19:59:03.584Z,37.30
2024-01-07T20:01:33.899Z,37.32
2024-01-07T20:04:18.858Z,37.08
2024-01-07T20:06:52.377Z,36.97
2024-01-07T20:09:33.885Z,36.91
2024-01-07T20:12:19.403Z,36.74
2024-01-07T20:15:04.107Z,37.01
2024-01-07T20:17:37.608Z,36.92
2024-01-07T20:20:16.282Z,37.18
2024-01-07T20:22:47.987Z,37.33
2024-01-07T20:25:16.786Z,37.00
2024-01-07T20:27:51.880Z,37.13
2024-01-07T20:30:28.650Z,37.00
2024-01-07T20:33:02.467Z,37.00
2024-01-07T20:35:34.032Z,37.17
2024-01-07T20:38:08.214Z,37.21
2024-01-07T20:40:42.792Z,36.98
2024-01-07T20:43:31.862Z,36.82
2024-01-07T20:46:12.352Z,37.22
2024-01-07T20:48:49.134Z,37.39
2024-01-07T20:51:22.745Z,36.92
2024-01-07T20:54:04.632Z,36.87
2024-01-07T20:56:34.762Z,37.02
2024-01-07T20:59:08.324Z,37.08
2024-01-07T21:01:41.718Z,36.97
2024-01-07T21:04:20.854Z,37.09
2024-01-07T21:07:00.067Z,37.25
2024-01-07T21:09:42.850Z,37.04
2024-01-07T21:12:16.039Z,37.10
2024-01-07T21:14:46.512Z,37.32
2024-01-07T21:17:24.947Z,37.29
2024-01-07T21:19:55.988Z,36.88
2024-01-07T21:22:35.046Z,36.84
2024-01-07T21:25:08.796Z,36.82
2024-01-07T21:27:41.484Z,36.92
2024-01-07T21:30:21.181Z,37.09
2024-01-07T21:32:53.413Z,37.11
2024-01-07T21:35:37.537Z,36.95
2024-01-07T21:38:08.331Z,36.97
2024-01-07T21:40:41.316Z,37.24
2024-01-07T21:43:17.894Z,37.06
2024-01-07T21:45:50.029Z,37.02
2024-01-07T21:48:22.114Z,37.10
2024-01-07T21:50:55.243Z,36.73
2024-01-07T21:53:28.794Z,36.98
2024-01-07T21:56:08.266Z,36.83
2024-01-07T21:58:39.574Z,37.14
2024-01-07T22:01:15.863Z,37.19
2024-01-07T22:03:47.347Z,37.31
2024-01-07T22:06:15.647Z,37.04
2024-01-07T22:08:52.179Z,36.71
2024-01-07T22:11:33.733Z,36.94
2024-01-07T22:14:15.306Z,36.97
2024-01-07T22:16:51.149Z,36.89
2024-01-07T22:19:27.069Z,37.05
2024-01-07T22:22:00.283Z,37.39
2024-01-07T22:24:33.585Z,37.21
2024-01-07T22:27:11.515Z,37.41
2024-01-07T22:29:48.032Z,37.40
2024-01-07T22:32:15.937Z,37.13
2024-01-07T22:34:52.042Z,36.92
2024-01-07T22:37:21.448Z,36.88
2024-01-07T22:39:57.982Z,36.88
2024-01-07T22:42:33.766Z,36.79
2024-01-07T22:45:10.865Z,37.10
2024-01-07T22:47:52.425Z,37.31
2024-01-07T22:50:35.517Z,37.40
2024-01-07T22:53:08.794Z,37.37
2024-01-07T22:55:47.423Z,37.50
2024-01-07T22:58:26.154Z,36.94
2024-01-07T23:01:03.034Z,36.83
2024-01-07T23:03:39.516Z,36.83
2024-01-07T23:06:11.256Z,36.82
2024-01-07T23:08:49.895Z,37.09
2024-01-07T23:11:22.899Z,36.95
2024-01-07T23:14:02.483Z,37.11
2024-01-07T23:16:37.378Z,37.28
2024-01-07T23:19:13.222Z,37.10
2024-01-07T23:21:47.943Z,37.39
2024-01-07T23:24:26.751Z,37.04
2024-01-07T23:26:57.488Z,36.70
2024-01-07T23:29:30.581Z,37.24
2024-01-07T23:32:05.409Z,37.02
2024-01-07T23:34:38.700Z,37.05
2024-01-07T23:37:21.478Z,37.35
2024-01-07T23:40:01.081Z,37.50
2024-01-07T23:42:39.968Z,37.04
2024-01-07T23:45:19.264Z,37.22
2024-01-07T23:47:53.303Z,36.91
2024-01-07T23:50:28.922Z,37.07
2024-01-07T23:52:59.494Z,37.11
2024-01-07T23:55:30.978Z,37.17
2024-01-07T23:58:12.373Z,37.12
